createdAt,value
2019-05-19T00:01:33.896Z,34.02
2019-05-19T00:04:02.190Z,34.32
2019-05-19T00:06:30.559Z,33.32
2019-05-19T00:08:58.888Z,33.31
2019-05-19T00:11:27.179Z,33.97
2019-05-19T00:13:55.504Z,34.35
2019-05-19T00:16:23.870Z,35.04
2019-05-19T00:18:52.237Z,34.71
2019-05-19T00:21:20.569Z,34.37
2019-05-19T00:23:48.872Z,34.11
2019-05-19T00:26:17.185Z,34.92
2019-05-19T00:28:45.612Z,35.28
2019-05-19T00:31:13.862Z,34.84
2019-05-19T00:33:42.334Z,33.75
2019-05-19T00:36:10.915Z,33.59
2019-05-19T00:38:39.247Z,33.62
2019-05-19T00:41:07.612Z,34.44
2019-05-19T00:43:36.005Z,34.94
2019-05-19T00:46:04.657Z,35.92
2019-05-19T00:48:33.334Z,37.13
2019-05-19T00:51:01.701Z,35.80
2019-05-19T00:53:30.409Z,36.34
2019-05-19T00:55:59.741Z,35.77
2019-05-19T00:58:28.601Z,36.48
2019-05-19T01:00:56.901Z,36.74
2019-05-19T01:03:25.676Z,36.83
2019-05-19T01:05:53.997Z,37.56
2019-05-19T01:08:22.354Z,38.23
2019-05-19T01:10:50.836Z,37.03
2019-05-19T01:13:19.139Z,37.20
2019-05-19T01:15:47.468Z,36.29
2019-05-19T01:18:15.832Z,35.56
2019-05-19T01:20:44.304Z,36.16
2019-05-19T01:23:12.627Z,36.42
2019-05-19T01:25:40.987Z,36.31
2019-05-19T01:28:09.313Z,37.83
2019-05-19T01:30:37.601Z,36.66
2019-05-19T01:33:05.988Z,36.97
2019-05-19T01:35:34.355Z,37.09
2019-05-19T01:38:03.019Z,36.85
2019-05-19T01:40:31.411Z,37.04
2019-05-19T01:42:59.772Z,37.93
2019-05-19T01:45:28.158Z,37.92
2019-05-19T01:47:56.466Z,38.28
2019-05-19T01:50:24.778Z,37.80
2019-05-19T01:52:53.085Z,37.26
2019-05-19T01:55:21.581Z,36.86
2019-05-19T01:57:49.868Z,37.48
2019-05-19T02:00:18.937Z,38.33
2019-05-19T02:02:47.240Z,38.58
2019-05-19T02:05:15.651Z,39.42
2019-05-19T02:07:44.031Z,39.90
2019-05-19T02:10:12.425Z,38.40
2019-05-19T02:12:41.082Z,37.65
2019-05-19T02:15:11.238Z,38.29
2019-05-19T02:17:40.002Z,39.43
2019-05-19T02:20:09.648Z,39.00
2019-05-19T02:22:38.004Z,38.19
2019-05-19T02:25:06.710Z,38.36
2019-05-19T02:27:35.044Z,39.00
2019-05-19T02:30:05.369Z,38.32
2019-05-19T02:32:33.687Z,39.16
2019-05-19T02:35:01.999Z,38.78
2019-05-19T02:37:30.291Z,38.78
2019-05-19T02:39:58.679Z,37.10
2019-05-19T02:42:28.525Z,37.74
2019-05-19T02:44:58.944Z,39.14
2019-05-19T02:47:28.280Z,38.83
2019-05-19T02:49:57.675Z,38.40
2019-05-19T02:52:27.341Z,39.55
2019-05-19T02:54:56.512Z,38.68
2019-05-19T02:57:24.962Z,39.48
2019-05-19T02:59:53.651Z,39.48
2019-05-19T03:02:22.339Z,39.38
2019-05-19T03:04:50.732Z,40.39
2019-05-19T03:07:19.049Z,39.30
2019-05-19T03:09:47.372Z,39.05
2019-05-19T03:12:15.667Z,38.88
2019-05-19T03:14:44.037Z,39.81
2019-05-19T03:17:12.354Z,39.62
2019-05-19T03:19:40.776Z,38.61
2019-05-19T03:22:09.178Z,38.42
2019-05-19T03:24:37.466Z,38.68
2019-05-19T03:27:05.964Z,38.50
2019-05-19T03:29:35.901Z,38.62
2019-05-19T03:32:12.362Z,37.63
2019-05-19T03:34:38.929Z,38.38
2019-05-19T03:37:07.226Z,39.09
2019-05-19T03:39:35.542Z,38.68
2019-05-19T03:42:04.331Z,38.44
2019-05-19T03:44:32.736Z,38.52
2019-05-19T03:47:01.048Z,37.93
2019-05-19T03:49:29.675Z,38.31
2019-05-19T03:51:57.996Z,38.35
2019-05-19T03:54:26.362Z,38.93
2019-05-19T03:56:54.684Z,39.62
2019-05-19T03:59:22.981Z,40.34
2019-05-19T04:01:51.292Z,40.20
2019-05-19T04:04:19.584Z,40.90
2019-05-19T04:06:47.907Z,39.42
2019-05-19T04:09:17.426Z,40.33
2019-05-19T04:11:46.152Z,39.26
2019-05-19T04:14:14.927Z,39.02
2019-05-19T04:16:43.513Z,39.45
2019-05-19T04:19:11.828Z,38.55
2019-05-19T04:21:48.810Z,39.88
2019-05-19T04:24:10.170Z,40.30
2019-05-19T04:26:38.466Z,42.12
2019-05-19T04:29:06.867Z,41.54
2019-05-19T04:31:35.158Z,40.32
2019-05-19T04:34:04.058Z,39.57
2019-05-19T04:36:32.382Z,39.19
2019-05-19T04:39:00.681Z,40.53
2019-05-19T04:41:29.072Z,40.56
2019-05-19T04:43:58.212Z,39.55
2019-05-19T04:46:26.953Z,38.45
2019-05-19T04:48:55.238Z,38.32
2019-05-19T04:51:23.575Z,38.44
2019-05-19T04:53:51.911Z,40.84
2019-05-19T04:56:20.211Z,40.22
2019-05-19T04:58:48.540Z,39.42
2019-05-19T05:01:16.834Z,39.05
2019-05-19T05:03:45.257Z,38.89
2019-05-19T05:06:13.916Z,38.86
2019-05-19T05:08:42.329Z,39.56
2019-05-19T05:11:10.687Z,39.78
2019-05-19T05:13:39.368Z,39.20
2019-05-19T05:16:07.724Z,38.77
2019-05-19T05:18:36.437Z,38.97
2019-05-19T05:21:04.845Z,41.03
2019-05-19T05:23:33.213Z,38.96
2019-05-19T05:26:01.540Z,37.58
2019-05-19T05:28:29.849Z,38.32
2019-05-19T05:30:58.183Z,40.63
2019-05-19T05:33:26.482Z,39.37
2019-05-19T05:35:54.783Z,39.27
2019-05-19T05:38:23.120Z,39.74
2019-05-19T05:40:51.416Z,41.37
2019-05-19T05:43:20.048Z,41.01
2019-05-19T05:45:48.416Z,43.15
2019-05-19T05:48:16.730Z,39.91
2019-05-19T05:50:45.024Z,39.69
2019-05-19T05:53:14.715Z,40.44
2019-05-19T05:55:43.083Z,39.56
2019-05-19T05:58:11.389Z,38.92
2019-05-19T06:00:39.707Z,38.92
2019-05-19T06:03:08.240Z,37.64
2019-05-19T06:05:36.583Z,39.65
2019-05-19T06:08:05.019Z,40.24
2019-05-19T06:10:33.352Z,38.39
2019-05-19T06:13:01.716Z,36.64
2019-05-19T06:15:30.356Z,39.17
2019-05-19T06:17:58.842Z,39.60
2019-05-19T06:20:27.136Z,36.25
2019-05-19T06:22:57.112Z,35.90
2019-05-19T06:25:25.778Z,35.17
2019-05-19T06:27:54.204Z,36.09
2019-05-19T06:30:22.573Z,34.41
2019-05-19T06:32:52.522Z,36.50
2019-05-19T06:35:21.025Z,33.95
2019-05-19T06:37:49.335Z,35.75
2019-05-19T06:40:17.921Z,35.82
2019-05-19T06:42:46.268Z,36.04
2019-05-19T06:45:16.536Z,34.78
2019-05-19T06:47:45.133Z,35.22
2019-05-19T06:50:14.295Z,34.66
2019-05-19T06:52:42.604Z,35.36
2019-05-19T06:55:11.237Z,35.61
2019-05-19T06:57:39.670Z,36.01
2019-05-19T07:00:08.312Z,36.36
2019-05-19T07:02:36.789Z,35.11
2019-05-19T07:05:09.047Z,34.54
2019-05-19T07:07:37.512Z,36.47
2019-05-19T07:10:09.131Z,37.61
2019-05-19T07:12:37.507Z,36.72
2019-05-19T07:15:06.574Z,34.54
2019-05-19T07:17:34.887Z,35.55
2019-05-19T07:20:04.043Z,35.71
2019-05-19T07:22:36.934Z,37.37
2019-05-19T07:25:02.586Z,35.13
2019-05-19T07:27:30.883Z,35.75
2019-05-19T07:29:59.221Z,35.82
2019-05-19T07:32:27.520Z,35.59
2019-05-19T07:34:56.179Z,37.02
2019-05-19T07:37:25.438Z,35.39
2019-05-19T07:39:54.068Z,36.43
2019-05-19T07:42:22.798Z,34.81
2019-05-19T07:44:51.101Z,35.85
2019-05-19T07:47:19.527Z,34.93
2019-05-19T07:49:47.851Z,33.95
2019-05-19T07:52:16.247Z,35.91
2019-05-19T07:54:44.551Z,35.79
2019-05-19T07:57:12.900Z,34.78
2019-05-19T07:59:41.260Z,35.59
2019-05-19T08:02:09.574Z,34.71
2019-05-19T08:04:37.974Z,35.00
2019-05-19T08:07:06.373Z,35.20
2019-05-19T08:09:34.707Z,33.76
2019-05-19T08:12:03.106Z,34.22
2019-05-19T08:14:31.530Z,33.91
2019-05-19T08:17:00.195Z,35.52
2019-05-19T08:19:28.587Z,35.13
2019-05-19T08:21:56.961Z,34.23
2019-05-19T08:24:25.463Z,33.63
2019-05-19T08:26:53.788Z,33.71
2019-05-19T08:29:22.100Z,33.67
2019-05-19T08:31:50.505Z,33.85
2019-05-19T08:34:18.799Z,35.19
2019-05-19T08:36:47.179Z,34.13
2019-05-19T08:39:15.471Z,34.00
2019-05-19T08:41:43.789Z,33.26
2019-05-19T08:44:12.190Z,32.37
2019-05-19T08:46:40.521Z,32.89
2019-05-19T08:49:08.883Z,31.67
2019-05-19T08:51:37.195Z,32.85
2019-05-19T08:54:14.298Z,32.64
2019-05-19T08:56:35.629Z,33.40
2019-05-19T08:59:04.334Z,32.61
2019-05-19T09:01:32.700Z,32.22
2019-05-19T09:04:01.400Z,31.40
2019-05-19T09:06:29.696Z,31.59
2019-05-19T09:08:57.994Z,31.13
2019-05-19T09:11:26.322Z,30.11
2019-05-19T09:13:54.618Z,30.29
2019-05-19T09:16:23.113Z,29.21
2019-05-19T09:18:51.413Z,30.16
2019-05-19T09:21:19.775Z,29.94
2019-05-19T09:23:48.100Z,30.09
2019-05-19T09:26:16.402Z,30.90
2019-05-19T09:28:44.808Z,29.79
2019-05-19T09:31:13.110Z,30.08
2019-05-19T09:33:41.428Z,28.77
2019-05-19T09:36:09.733Z,29.75
2019-05-19T09:38:38.148Z,31.46
2019-05-19T09:41:06.524Z,29.35
2019-05-19T09:43:34.919Z,29.06
2019-05-19T09:46:03.285Z,30.99
2019-05-19T09:48:31.539Z,29.55
2019-05-19T09:51:00.255Z,29.96
2019-05-19T09:53:28.548Z,30.65
2019-05-19T09:55:56.937Z,30.28
2019-05-19T09:58:25.303Z,30.39
2019-05-19T10:00:53.686Z,31.18
2019-05-19T10:03:22.003Z,32.61
2019-05-19T10:05:50.293Z,30.87
2019-05-19T10:08:24.192Z,31.02
2019-05-19T10:11:13.110Z,29.81
2019-05-19T10:13:41.408Z,29.31
2019-05-19T10:16:10.087Z,31.22
2019-05-19T10:18:38.387Z,27.99
2019-05-19T10:21:06.692Z,28.50
2019-05-19T10:23:35.529Z,27.50
2019-05-19T10:26:03.826Z,27.67
2019-05-19T10:28:32.342Z,30.11
2019-05-19T10:31:00.697Z,28.97
2019-05-19T10:33:29.079Z,28.98
2019-05-19T10:35:57.387Z,28.30
2019-05-19T10:38:25.817Z,28.35
2019-05-19T10:40:54.501Z,29.92
2019-05-19T10:43:22.851Z,31.15
2019-05-19T10:45:52.924Z,28.51
2019-05-19T10:48:21.232Z,29.53
2019-05-19T10:50:49.769Z,29.33
2019-05-19T10:53:18.724Z,30.47
2019-05-19T10:55:47.060Z,30.05
2019-05-19T10:58:15.402Z,27.23
2019-05-19T11:00:43.721Z,26.86
2019-05-19T11:03:12.021Z,28.97
2019-05-19T11:05:40.338Z,27.90
2019-05-19T11:08:08.656Z,28.97
2019-05-19T11:10:37.021Z,28.26
2019-05-19T11:13:05.339Z,26.94
2019-05-19T11:15:33.716Z,25.88
2019-05-19T11:18:02.038Z,26.36
2019-05-19T11:20:30.398Z,26.98
2019-05-19T11:22:58.736Z,27.58
2019-05-19T11:25:33.834Z,26.89
2019-05-19T11:27:57.435Z,27.29
2019-05-19T11:30:25.789Z,28.30
2019-05-19T11:32:54.119Z,25.08
2019-05-19T11:35:22.610Z,26.40
2019-05-19T11:37:50.977Z,28.06
2019-05-19T11:40:19.339Z,26.36
2019-05-19T11:42:48.039Z,27.57
2019-05-19T11:45:16.408Z,28.90
2019-05-19T11:47:44.730Z,28.57
2019-05-19T11:50:13.098Z,27.22
2019-05-19T11:52:41.777Z,29.12
2019-05-19T11:55:10.154Z,28.20
2019-05-19T11:57:38.476Z,27.25
2019-05-19T12:00:07.313Z,26.89
2019-05-19T12:02:35.643Z,24.80
2019-05-19T12:05:05.733Z,24.02
2019-05-19T12:07:34.025Z,24.21
2019-05-19T12:10:02.705Z,23.16
2019-05-19T12:12:30.987Z,23.70
2019-05-19T12:14:59.312Z,25.91
2019-05-19T12:17:27.653Z,25.91
2019-05-19T12:19:55.984Z,24.45
2019-05-19T12:22:24.289Z,25.09
2019-05-19T12:24:53.080Z,26.56
2019-05-19T12:27:21.369Z,24.19
2019-05-19T12:29:49.686Z,24.35
2019-05-19T12:32:18.297Z,23.53
2019-05-19T12:34:46.574Z,25.24
2019-05-19T12:37:15.202Z,25.04
2019-05-19T12:39:43.793Z,24.37
2019-05-19T12:42:12.199Z,23.92
2019-05-19T12:44:40.576Z,21.49
2019-05-19T12:47:08.862Z,24.41
2019-05-19T12:49:37.214Z,21.51
2019-05-19T12:52:05.602Z,23.86
2019-05-19T12:54:34.027Z,25.83
2019-05-19T12:57:02.394Z,25.73
2019-05-19T12:59:30.685Z,26.89
2019-05-19T13:01:59.170Z,23.30
2019-05-19T13:04:27.482Z,24.00
2019-05-19T13:06:55.918Z,23.42
2019-05-19T13:09:24.215Z,23.21
2019-05-19T13:11:52.610Z,22.78
2019-05-19T13:14:21.333Z,24.49
2019-05-19T13:16:49.729Z,23.72
2019-05-19T13:19:18.084Z,25.16
2019-05-19T13:21:46.376Z,24.08
2019-05-19T13:24:14.695Z,25.40
2019-05-19T13:26:55.638Z,23.39
2019-05-19T13:29:13.033Z,22.18
2019-05-19T13:31:41.328Z,22.41
2019-05-19T13:34:09.633Z,20.89
2019-05-19T13:36:40.270Z,19.84
2019-05-19T13:39:08.346Z,20.52
2019-05-19T13:41:36.817Z,21.55
2019-05-19T13:44:05.182Z,21.69
2019-05-19T13:46:33.506Z,23.77
2019-05-19T13:49:01.799Z,23.03
2019-05-19T13:51:30.208Z,22.50
2019-05-19T13:53:58.581Z,23.24
2019-05-19T13:56:26.935Z,21.25
2019-05-19T13:58:55.322Z,20.80
2019-05-19T14:01:28.513Z,21.20
2019-05-19T14:03:53.834Z,19.51
2019-05-19T14:06:22.090Z,22.36
2019-05-19T14:08:50.403Z,21.43
2019-05-19T14:11:18.705Z,23.67
2019-05-19T14:13:47.074Z,23.83
2019-05-19T14:16:15.376Z,23.62
2019-05-19T14:18:43.896Z,23.40
2019-05-19T14:21:12.211Z,22.41
2019-05-19T14:23:41.328Z,23.78
2019-05-19T14:26:09.667Z,23.51
2019-05-19T14:28:37.979Z,23.57
2019-05-19T14:31:06.460Z,22.64
2019-05-19T14:33:34.762Z,24.63
2019-05-19T14:36:03.079Z,22.66
2019-05-19T14:38:31.376Z,23.44
2019-05-19T14:40:59.714Z,23.44
2019-05-19T14:43:32.924Z,23.92
2019-05-19T14:46:01.305Z,25.20
2019-05-19T14:48:29.629Z,23.93
2019-05-19T14:50:57.944Z,23.81
2019-05-19T14:53:26.363Z,24.23
2019-05-19T14:55:54.667Z,23.39
2019-05-19T14:58:23.059Z,24.79
2019-05-19T15:00:51.361Z,23.66
2019-05-19T15:03:19.656Z,23.92
2019-05-19T15:05:48.352Z,25.03
2019-05-19T15:08:16.716Z,24.89
2019-05-19T15:10:45.076Z,24.22
2019-05-19T15:13:13.374Z,25.31
2019-05-19T15:15:41.691Z,26.59
2019-05-19T15:18:10.057Z,27.47
2019-05-19T15:20:38.548Z,25.70
2019-05-19T15:23:06.919Z,26.96
2019-05-19T15:25:35.245Z,26.86
2019-05-19T15:28:05.438Z,27.67
2019-05-19T15:30:33.586Z,27.78
2019-05-19T15:33:02.165Z,27.00
2019-05-19T15:35:31.033Z,26.39
2019-05-19T15:37:59.449Z,27.72
2019-05-19T15:40:27.764Z,27.32
2019-05-19T15:42:56.080Z,28.08
2019-05-19T15:45:24.447Z,27.35
2019-05-19T15:47:52.745Z,27.83
2019-05-19T15:50:21.249Z,28.55
2019-05-19T15:52:49.549Z,27.31
2019-05-19T15:55:18.026Z,27.69
2019-05-19T15:57:46.321Z,27.78
2019-05-19T16:00:15.034Z,27.95
2019-05-19T16:02:43.309Z,27.03
2019-05-19T16:05:12.872Z,27.15
2019-05-19T16:07:41.181Z,26.04
2019-05-19T16:10:10.051Z,26.13
2019-05-19T16:12:38.715Z,26.42
2019-05-19T16:15:08.598Z,26.82
2019-05-19T16:17:36.986Z,27.46
2019-05-19T16:20:09.049Z,28.92
2019-05-19T16:22:37.536Z,26.77
2019-05-19T16:25:07.931Z,27.65
2019-05-19T16:27:36.270Z,27.03
2019-05-19T16:30:09.009Z,27.24
2019-05-19T16:32:37.694Z,27.79
2019-05-19T16:35:06.952Z,26.55
2019-05-19T16:37:35.337Z,27.89
2019-05-19T16:40:04.709Z,27.55
2019-05-19T16:42:33.009Z,28.59
2019-05-19T16:45:01.336Z,28.32
2019-05-19T16:47:29.612Z,28.57
2019-05-19T16:49:57.925Z,28.35
2019-05-19T16:52:26.590Z,29.14
2019-05-19T16:55:12.823Z,29.66
2019-05-19T16:57:41.120Z,28.97
2019-05-19T17:00:09.511Z,30.87
2019-05-19T17:02:37.819Z,29.65
2019-05-19T17:05:07.263Z,30.72
2019-05-19T17:07:35.568Z,31.02
2019-05-19T17:10:05.224Z,31.43
2019-05-19T17:12:33.578Z,29.74
2019-05-19T17:15:02.631Z,30.72
2019-05-19T17:17:31.114Z,30.39
2019-05-19T17:19:59.436Z,30.75
2019-05-19T17:22:27.760Z,31.65
2019-05-19T17:24:56.050Z,31.64
2019-05-19T17:27:24.712Z,31.17
2019-05-19T17:29:53.017Z,31.75
2019-05-19T17:32:21.374Z,31.99
2019-05-19T17:34:49.759Z,31.56
2019-05-19T17:37:18.060Z,31.42
2019-05-19T17:39:46.382Z,31.52
2019-05-19T17:42:14.683Z,31.89
2019-05-19T17:44:43.201Z,32.67
2019-05-19T17:47:11.576Z,31.90
2019-05-19T17:49:40.017Z,31.78
2019-05-19T17:52:08.540Z,32.76
2019-05-19T17:54:36.872Z,32.08
2019-05-19T17:57:05.201Z,34.70
2019-05-19T17:59:33.856Z,33.31
2019-05-19T18:02:02.172Z,32.94
2019-05-19T18:04:30.466Z,32.72
2019-05-19T18:06:58.792Z,32.90
2019-05-19T18:09:27.512Z,32.44
2019-05-19T18:11:55.836Z,33.24
2019-05-19T18:14:24.479Z,33.27
2019-05-19T18:16:52.814Z,33.93
2019-05-19T18:19:21.110Z,35.03
2019-05-19T18:21:49.423Z,34.67
2019-05-19T18:24:18.722Z,34.04
2019-05-19T18:26:47.058Z,34.40
2019-05-19T18:29:15.359Z,34.35
2019-05-19T18:31:43.664Z,34.84
2019-05-19T18:34:11.984Z,33.98
2019-05-19T18:36:40.316Z,33.87
2019-05-19T18:39:08.777Z,34.64
2019-05-19T18:41:37.076Z,34.94
2019-05-19T18:44:05.478Z,34.01
2019-05-19T18:46:34.159Z,35.12
2019-05-19T18:49:02.494Z,33.92
2019-05-19T18:51:30.870Z,34.08
2019-05-19T18:53:59.275Z,35.06
2019-05-19T18:56:27.996Z,35.45
2019-05-19T18:58:56.314Z,34.02
2019-05-19T19:01:24.638Z,34.24
2019-05-19T19:03:53.285Z,35.08
2019-05-19T19:06:22.033Z,35.22
2019-05-19T19:08:50.340Z,34.91
2019-05-19T19:11:18.755Z,34.75
2019-05-19T19:13:47.053Z,34.82
2019-05-19T19:16:15.661Z,35.20
2019-05-19T19:18:44.050Z,35.56
2019-05-19T19:21:12.732Z,35.60
2019-05-19T19:23:41.135Z,36.68
2019-05-19T19:26:09.507Z,37.06
2019-05-19T19:28:37.985Z,36.69
2019-05-19T19:31:06.354Z,36.59
2019-05-19T19:33:34.657Z,36.31
2019-05-19T19:36:03.038Z,35.80
2019-05-19T19:38:31.354Z,35.16
2019-05-19T19:40:59.733Z,35.02
2019-05-19T19:43:28.038Z,37.50
2019-05-19T19:45:56.378Z,36.54
2019-05-19T19:48:24.680Z,36.91
2019-05-19T19:50:53.088Z,37.31
2019-05-19T19:53:21.392Z,36.95
2019-05-19T19:55:49.769Z,35.52
2019-05-19T19:58:18.213Z,35.26
2019-05-19T20:00:46.738Z,35.98
2019-05-19T20:03:15.430Z,35.76
2019-05-19T20:05:44.695Z,35.50
2019-05-19T20:08:13.242Z,37.92
2019-05-19T20:10:41.565Z,36.70
2019-05-19T20:13:10.051Z,37.82
2019-05-19T20:15:38.404Z,35.83
2019-05-19T20:18:06.813Z,38.24
2019-05-19T20:20:35.275Z,39.13
2019-05-19T20:23:03.738Z,37.03
2019-05-19T20:25:32.346Z,35.73
2019-05-19T20:28:00.640Z,35.74
2019-05-19T20:30:35.638Z,36.08
2019-05-19T20:32:59.054Z,35.32
2019-05-19T20:35:27.456Z,36.16
2019-05-19T20:37:55.755Z,37.22
2019-05-19T20:40:24.136Z,37.75
2019-05-19T20:42:52.701Z,36.35
2019-05-19T20:45:21.399Z,36.21
2019-05-19T20:47:49.787Z,38.32
2019-05-19T20:50:18.189Z,36.80
2019-05-19T20:52:46.518Z,38.27
2019-05-19T20:55:14.894Z,38.03
2019-05-19T20:57:43.216Z,37.43
2019-05-19T21:00:11.735Z,39.35
2019-05-19T21:02:40.133Z,38.91
2019-05-19T21:05:08.506Z,37.94
2019-05-19T21:07:37.110Z,35.83
2019-05-19T21:10:08.848Z,37.45
2019-05-19T21:12:37.168Z,38.57
2019-05-19T21:15:09.152Z,38.86
2019-05-19T21:17:37.442Z,39.57
2019-05-19T21:20:09.649Z,37.34
2019-05-19T21:22:37.946Z,38.74
2019-05-19T21:25:07.551Z,36.91
2019-05-19T21:27:35.829Z,38.91
2019-05-19T21:30:06.188Z,39.44
2019-05-19T21:32:34.498Z,39.69
2019-05-19T21:35:02.987Z,39.07
2019-05-19T21:37:31.333Z,39.24
2019-05-19T21:39:59.700Z,38.62
2019-05-19T21:42:27.962Z,37.98
2019-05-19T21:44:56.336Z,37.82
2019-05-19T21:47:24.797Z,39.57
2019-05-19T21:49:53.155Z,41.12
2019-05-19T21:52:21.655Z,40.02
2019-05-19T21:54:49.973Z,40.72
2019-05-19T21:57:19.940Z,42.45
2019-05-19T21:59:48.238Z,40.94
2019-05-19T22:02:17.204Z,41.60
2019-05-19T22:04:45.517Z,43.53
2019-05-19T22:07:27.479Z,41.29
2019-05-19T22:09:55.798Z,44.45
2019-05-19T22:12:24.100Z,43.06
2019-05-19T22:14:52.421Z,43.07
2019-05-19T22:17:20.826Z,42.01
2019-05-19T22:19:49.147Z,44.08
2019-05-19T22:22:17.577Z,42.19
2019-05-19T22:24:45.901Z,40.74
2019-05-19T22:27:14.203Z,42.90
2019-05-19T22:29:42.534Z,40.97
2019-05-19T22:32:10.826Z,43.37
2019-05-19T22:34:39.131Z,42.12
2019-05-19T22:37:07.769Z,42.08
2019-05-19T22:39:36.132Z,43.16
2019-05-19T22:42:05.039Z,43.63
2019-05-19T22:44:33.828Z,42.79
2019-05-19T22:47:02.207Z,44.38
2019-05-19T22:49:30.795Z,45.11
2019-05-19T22:51:59.099Z,43.69
2019-05-19T22:54:27.424Z,43.87
2019-05-19T22:56:55.728Z,44.58
2019-05-19T22:59:24.050Z,43.53
2019-05-19T23:01:52.421Z,43.17
2019-05-19T23:04:21.192Z,46.79
2019-05-19T23:06:49.488Z,44.21
2019-05-19T23:09:17.822Z,43.91
2019-05-19T23:11:46.333Z,46.14
2019-05-19T23:14:14.696Z,47.24
2019-05-19T23:16:43.093Z,40.76
2019-05-19T23:19:11.666Z,42.59
2019-05-19T23:21:39.982Z,41.88
2019-05-19T23:24:08.358Z,41.04
2019-05-19T23:26:36.686Z,43.12
2019-05-19T23:29:05.059Z,41.81
2019-05-19T23:31:33.694Z,41.95
2019-05-19T23:34:01.991Z,41.20
2019-05-19T23:36:30.486Z,41.20
2019-05-19T23:38:58.827Z,40.23
2019-05-19T23:41:27.112Z,41.56
2019-05-19T23:43:55.436Z,40.76
2019-05-19T23:46:23.735Z,40.18
2019-05-19T23:48:52.085Z,40.88
2019-05-19T23:51:20.400Z,39.89
2019-05-19T23:53:48.728Z,41.73
2019-05-19T23:56:17.095Z,42.91
2019-05-19T23:58:45.423Z,42.11
